Time;durP1;ratioP1;P1;durP2;ratioP2;P2;SDS_P1;SDS_P2;PMS_P1;PMS_P2;Temp;Humidity;BMP_temperature;BMP_pressure;BME280_temperature;BME280_humidity;BME280_pressure;Samples;Min_cycle;Max_cycle;Signal;HPM_P1;HPM_P2
2023/05/06 00:00:24;;;;;;;23.45;17.77;;;;;;;10.28;100.00;101583.50;5115725;28;20027;-74
2023/05/06 00:02:50;;;;;;;25.85;18.60;;;;;;;10.28;100.00;101586.13;5115020;28;20114;-74
2023/05/06 00:05:17;;;;;;;24.35;18.08;;;;;;;10.25;100.00;101580.03;5111144;28;20561;-74
2023/05/06 00:07:43;;;;;;;24.88;18.10;;;;;;;10.22;100.00;101578.31;5115627;28;20038;-75
2023/05/06 00:10:09;;;;;;;28.15;18.67;;;;;;;10.21;100.00;101578.34;5114772;28;20034;-74
2023/05/06 00:12:34;;;;;;;27.17;18.40;;;;;;;10.18;100.00;101583.59;5109467;28;20022;-74
2023/05/06 00:15:00;;;;;;;25.83;19.20;;;;;;;10.15;100.00;101583.63;5115003;27;20047;-74
2023/05/06 00:17:25;;;;;;;25.20;18.38;;;;;;;10.11;100.00;101582.78;5110037;28;20043;-74
2023/05/06 00:19:51;;;;;;;24.30;18.30;;;;;;;10.10;100.00;101586.25;5105669;28;20103;-74
2023/05/06 00:22:16;;;;;;;24.83;18.67;;;;;;;10.06;100.00;101577.59;5113914;28;20363;-74
2023/05/06 00:24:41;;;;;;;23.80;18.30;;;;;;;10.02;100.00;101578.53;5115195;28;20027;-74
2023/05/06 00:27:07;;;;;;;25.85;17.80;;;;;;;10.00;100.00;101579.41;5115010;28;20038;-74
2023/05/06 00:29:32;;;;;;;25.73;18.20;;;;;;;9.97;100.00;101579.44;5110693;28;20091;-74
2023/05/06 00:31:58;;;;;;;24.33;18.02;;;;;;;9.94;100.00;101572.53;5112618;28;20046;-74
2023/05/06 00:34:23;;;;;;;24.45;18.38;;;;;;;9.93;100.00;101575.13;5100464;28;20062;-74
2023/05/06 00:36:48;;;;;;;28.35;19.45;;;;;;;9.88;100.00;101577.78;5114149;28;20030;-74
2023/05/06 00:39:15;;;;;;;25.88;19.02;;;;;;;9.76;100.00;101570.94;5111411;28;20030;-74
2023/05/06 00:41:40;;;;;;;23.92;18.10;;;;;;;9.83;100.00;101576.97;5114734;28;20035;-74
2023/05/06 00:44:05;;;;;;;25.20;18.40;;;;;;;9.78;100.00;101570.94;5113386;28;20034;-74
2023/05/06 00:46:31;;;;;;;23.70;18.92;;;;;;;9.74;100.00;101574.44;5114734;28;20144;-74
2023/05/06 00:48:57;;;;;;;24.30;18.98;;;;;;;9.69;100.00;101574.47;5108580;28;20757;-74
2023/05/06 00:51:22;;;;;;;25.13;18.65;;;;;;;9.69;100.00;101579.69;5107896;28;20034;-74
2023/05/06 00:53:48;;;;;;;25.33;18.52;;;;;;;9.65;100.00;101571.94;5114491;28;20421;-74
2023/05/06 00:56:14;;;;;;;24.85;19.00;;;;;;;9.65;100.00;101577.13;5114959;28;20386;-74
2023/05/06 00:58:40;;;;;;;25.85;18.92;;;;;;;9.61;100.00;101569.34;5111625;28;20114;-74
2023/05/06 01:01:05;;;;;;;27.20;18.92;;;;;;;9.56;100.00;101562.44;5100910;28;20118;-74
2023/05/06 01:03:31;;;;;;;26.15;18.33;;;;;;;9.57;100.00;101562.41;5078028;28;20029;-74
2023/05/06 01:06:08;;;;;;;27.05;19.02;;;;;;;9.52;100.00;101566.81;5076047;28;20031;-74
2023/05/06 01:08:45;;;;;;;22.95;17.50;;;;;;;9.51;100.00;101562.44;5099967;28;20517;-74
2023/05/06 01:11:15;;;;;;;22.17;17.65;;;;;;;9.46;100.00;101572.06;5099933;28;20114;-74
2023/05/06 01:13:51;;;;;;;25.55;19.48;;;;;;;9.39;100.00;101570.38;5097449;28;20024;-74
2023/05/06 01:16:20;;;;;;;26.73;18.60;;;;;;;9.42;100.00;101572.06;5102065;28;20056;-74
2023/05/06 01:18:48;;;;;;;23.63;17.85;;;;;;;9.39;100.00;101572.97;5091491;28;20107;-74
2023/05/06 01:21:14;;;;;;;24.17;18.80;;;;;;;9.38;100.00;101559.09;5081311;28;20035;-74
2023/05/06 01:23:56;;;;;;;26.33;19.08;;;;;;;9.42;100.00;101575.56;5093526;28;20028;-74
2023/05/06 01:26:23;;;;;;;22.58;17.48;;;;;;;9.37;100.00;101561.69;5080710;28;20039;-74
2023/05/06 01:28:48;;;;;;;25.58;18.73;;;;;;;9.30;100.00;101555.69;5093097;28;20106;-74
2023/05/06 01:31:24;;;;;;;24.92;18.33;;;;;;;9.33;100.00;101555.66;5093271;28;20116;-74
2023/05/06 01:34:04;;;;;;;26.63;18.60;;;;;;;9.35;100.00;101563.44;5092031;28;20109;-74
2023/05/06 01:36:54;;;;;;;27.00;19.50;;;;;;;9.32;100.00;101561.75;5073692;28;20235;-74
2023/05/06 01:39:28;;;;;;;27.45;18.83;;;;;;;9.27;100.00;101565.25;5095271;28;20036;-74
2023/05/06 01:41:56;;;;;;;27.75;17.85;;;;;;;9.25;100.00;101557.44;5092629;28;20170;-74
2023/05/06 01:44:22;;;;;;;24.08;18.35;;;;;;;9.23;100.00;101564.41;5104415;28;20023;-74
2023/05/06 01:46:48;;;;;;;25.20;17.90;;;;;;;9.19;100.00;101569.63;5095287;28;20028;-74
2023/05/06 01:49:15;;;;;;;25.48;18.60;;;;;;;9.16;100.00;101561.84;5093423;28;20032;-74
2023/05/06 01:51:49;;;;;;;25.65;18.83;;;;;;;9.16;100.00;101567.06;5092627;28;20012;-74
2023/05/06 01:54:15;;;;;;;23.25;18.00;;;;;;;9.16;100.00;101569.66;5092568;28;20016;-74
2023/05/06 01:56:40;;;;;;;28.98;17.70;;;;;;;9.12;100.00;101582.69;5091405;28;20489;-74
2023/05/06 01:59:06;;;;;;;24.27;17.42;;;;;;;9.10;100.00;101581.81;5102067;28;20031;-74
2023/05/06 02:01:31;;;;;;;25.15;17.65;;;;;;;9.11;100.00;101585.28;5095835;28;20024;-74
2023/05/06 02:03:56;;;;;;;26.10;18.00;;;;;;;9.11;100.00;101572.28;5091031;28;20502;-74
2023/05/06 02:06:21;;;;;;;23.60;17.60;;;;;;;9.09;100.00;101577.50;5098318;28;20414;-74
2023/05/06 02:08:47;;;;;;;21.98;17.20;;;;;;;9.06;100.00;101576.66;5094499;28;20023;-74
2023/05/06 02:11:13;;;;;;;25.95;17.67;;;;;;;9.03;100.00;101580.13;5088689;28;20039;-74
2023/05/06 02:13:38;;;;;;;23.40;17.35;;;;;;;9.01;100.00;101583.59;5090291;28;20102;-74
2023/05/06 02:16:04;;;;;;;23.45;16.77;;;;;;;8.98;100.00;101578.41;5091326;28;20483;-74
2023/05/06 02:18:29;;;;;;;21.30;16.85;;;;;;;8.84;100.00;101570.69;5091468;28;20424;-74
2023/05/06 02:20:54;;;;;;;21.92;16.35;;;;;;;8.93;100.00;101590.56;5104554;28;20024;-74
2023/05/06 02:23:20;;;;;;;25.92;17.95;;;;;;;8.92;100.00;101589.69;5092077;28;20463;-74
2023/05/06 02:25:45;;;;;;;23.35;16.63;;;;;;;8.80;100.00;101581.97;5092263;28;20081;-74
2023/05/06 02:28:10;;;;;;;21.83;16.50;;;;;;;8.82;100.00;101595.81;5092620;28;20371;-74
2023/05/06 02:30:36;;;;;;;22.83;16.40;;;;;;;8.76;100.00;101588.03;5092805;28;20035;-74
2023/05/06 02:33:01;;;;;;;22.63;17.02;;;;;;;8.79;100.00;101582.81;5092126;28;20024;-74
2023/05/06 02:35:27;;;;;;;23.30;16.33;;;;;;;8.76;100.00;101595.84;5093734;28;20032;-74
2023/05/06 02:37:52;;;;;;;22.30;17.05;;;;;;;8.73;100.00;101593.25;5091886;28;20035;-74
2023/05/06 02:40:17;;;;;;;20.55;16.33;;;;;;;8.73;100.00;101586.34;5103123;28;20031;-74
2023/05/06 02:42:43;;;;;;;21.27;16.65;;;;;;;8.72;100.00;101587.19;5093489;28;20026;-74
2023/05/06 02:45:08;;;;;;;22.13;16.17;;;;;;;8.68;100.00;101588.94;5091927;28;20028;-74
2023/05/06 02:47:34;;;;;;;23.35;17.00;;;;;;;8.64;100.00;101584.63;5098799;28;20079;-74
2023/05/06 02:49:59;;;;;;;22.92;16.67;;;;;;;8.63;100.00;101579.41;5091669;28;20028;-75
2023/05/06 02:52:24;;;;;;;21.83;16.23;;;;;;;8.63;100.00;101582.03;5093603;28;20050;-74
2023/05/06 02:54:51;;;;;;;22.42;16.05;;;;;;;8.63;100.00;101579.41;5104602;28;20111;-74
2023/05/06 02:57:16;;;;;;;23.65;16.85;;;;;;;8.57;100.00;101569.06;5098225;28;20020;-74
2023/05/06 02:59:42;;;;;;;21.50;16.27;;;;;;;8.60;100.00;101582.03;5098486;28;20434;-74
2023/05/06 03:02:07;;;;;;;23.02;17.00;;;;;;;8.58;100.00;101583.78;5092456;28;20472;-75
2023/05/06 03:04:32;;;;;;;20.48;15.88;;;;;;;8.56;100.00;101582.91;5091656;28;20059;-74
2023/05/06 03:06:58;;;;;;;24.98;16.77;;;;;;;8.50;100.00;101581.22;5094280;28;20028;-74
2023/05/06 03:09:23;;;;;;;25.35;16.20;;;;;;;8.53;100.00;101581.19;5091541;28;20040;-74
2023/05/06 03:11:48;;;;;;;21.70;16.38;;;;;;;8.52;100.00;101582.06;5081274;28;20410;-75
2023/05/06 03:14:14;;;;;;;25.38;16.52;;;;;;;8.51;100.00;101576.88;5092103;28;20031;-75
2023/05/06 03:16:40;;;;;;;22.42;16.23;;;;;;;8.49;100.00;101576.88;5101604;28;20035;-75
2023/05/06 03:19:05;;;;;;;20.65;15.68;;;;;;;8.46;100.00;101578.63;5095373;28;20094;-74
2023/05/06 03:21:31;;;;;;;23.17;15.40;;;;;;;8.43;100.00;101580.34;5106997;28;20020;-74
2023/05/06 03:23:56;;;;;;;24.85;16.85;;;;;;;8.43;100.00;101571.69;5099620;28;20020;-74
2023/05/06 03:26:21;;;;;;;23.63;15.98;;;;;;;8.40;100.00;101577.78;5095013;28;20108;-74
2023/05/06 03:28:47;;;;;;;25.92;15.85;;;;;;;8.40;100.00;101571.69;5095042;28;20024;-74
2023/05/06 03:31:12;;;;;;;20.70;15.93;;;;;;;8.37;100.00;101564.78;5096012;28;20084;-74
2023/05/06 03:33:37;;;;;;;22.65;16.27;;;;;;;8.34;100.00;101569.97;5094480;28;20427;-74
2023/05/06 03:36:03;;;;;;;19.50;15.43;;;;;;;8.29;100.00;101566.50;5096502;28;20061;-74
2023/05/06 03:38:29;;;;;;;19.65;15.20;;;;;;;8.31;100.00;101563.94;5104132;28;20027;-74
2023/05/06 03:40:54;;;;;;;20.88;15.73;;;;;;;8.30;100.00;101563.03;5094823;28;20119;-74
2023/05/06 03:43:19;;;;;;;22.55;14.65;;;;;;;8.27;100.00;101554.38;5094356;28;20036;-74
2023/05/06 03:45:45;;;;;;;21.08;14.48;;;;;;;8.23;100.00;101561.31;5095431;28;20028;-74
2023/05/06 03:48:10;;;;;;;20.85;15.95;;;;;;;8.25;100.00;101564.78;5094214;28;20352;-74
2023/05/06 03:50:36;;;;;;;21.70;15.57;;;;;;;8.22;100.00;101570.00;5093583;28;20028;-74
2023/05/06 03:53:01;;;;;;;19.80;14.93;;;;;;;8.18;100.00;101566.53;5095284;28;20030;-74
2023/05/06 03:55:26;;;;;;;20.60;15.20;;;;;;;8.21;100.00;101574.34;5095167;28;20047;-74
2023/05/06 03:57:52;;;;;;;19.35;14.57;;;;;;;8.19;100.00;101563.06;5094854;28;20069;-75
2023/05/06 04:00:17;;;;;;;19.73;14.85;;;;;;;8.24;100.00;101564.78;5097572;28;20023;-74
2023/05/06 04:02:42;;;;;;;20.20;14.23;;;;;;;8.24;100.00;101577.78;5100504;28;20362;-74
2023/05/06 04:05:08;;;;;;;18.48;14.27;;;;;;;8.18;100.00;101579.53;5095090;28;20024;-74
2023/05/06 04:07:33;;;;;;;20.00;14.50;;;;;;;8.18;100.00;101578.66;5094596;28;20027;-74
2023/05/06 04:09:59;;;;;;;19.00;13.88;;;;;;;8.16;100.00;101586.44;5097116;28;20314;-75
2023/05/06 04:12:24;;;;;;;23.45;14.85;;;;;;;8.17;100.00;101576.91;5082163;28;20020;-74
2023/05/06 04:14:50;;;;;;;24.25;15.13;;;;;;;8.25;100.00;101579.53;5094288;28;20040;-74
2023/05/06 04:17:15;;;;;;;20.10;14.65;;;;;;;8.30;100.00;101581.22;5098369;28;20020;-74
2023/05/06 04:19:40;;;;;;;21.42;14.73;;;;;;;8.28;100.00;101574.31;5103904;28;20024;-74
2023/05/06 04:22:06;;;;;;;21.15;14.45;;;;;;;8.34;100.00;101575.16;5102812;28;20461;-74
2023/05/06 04:24:32;;;;;;;19.90;14.05;;;;;;;8.40;100.00;101579.50;5094850;28;20524;-74
2023/05/06 04:26:58;;;;;;;18.52;13.93;;;;;;;8.41;100.00;101581.25;5095239;28;20040;-74
2023/05/06 04:29:24;;;;;;;22.40;16.08;;;;;;;8.44;100.00;101586.44;5094517;28;20016;-74
2023/05/06 04:31:50;;;;;;;19.70;15.48;;;;;;;8.48;100.00;101593.34;5093513;28;20035;-74
2023/05/06 04:34:15;;;;;;;18.38;13.82;;;;;;;8.51;100.00;101582.09;5107651;28;20066;-74
2023/05/06 04:36:41;;;;;;;19.10;14.43;;;;;;;8.56;100.00;101578.59;5093450;28;20048;-74
2023/05/06 04:39:07;;;;;;;19.50;13.98;;;;;;;8.62;100.00;101588.09;5103989;28;20024;-74
2023/05/06 04:41:33;;;;;;;20.10;14.38;;;;;;;8.64;100.00;101589.84;5094889;28;20074;-73
2023/05/06 04:44:00;;;;;;;19.48;14.68;;;;;;;8.64;100.00;101584.63;5093828;28;20027;-74
2023/05/06 04:46:25;;;;;;;21.58;14.57;;;;;;;8.68;100.00;101591.53;5093330;28;20039;-74
2023/05/06 04:48:52;;;;;;;17.77;14.50;;;;;;;8.71;100.00;101595.88;5100761;28;20020;-74
2023/05/06 04:51:17;;;;;;;20.95;14.25;;;;;;;8.74;100.00;101600.19;5093344;28;20031;-74
2023/05/06 04:53:42;;;;;;;19.27;14.13;;;;;;;8.75;100.00;101597.59;5106912;28;20023;-75
2023/05/06 04:56:07;;;;;;;19.45;14.23;;;;;;;8.78;100.00;101602.78;5096493;28;20020;-74
2023/05/06 04:58:33;;;;;;;22.05;14.50;;;;;;;8.82;100.00;101599.28;5093325;28;20375;-74
2023/05/06 05:01:03;;;;;;;21.35;14.07;;;;;;;8.87;100.00;101605.34;5093015;28;20028;-74
2023/05/06 05:03:28;;;;;;;21.27;14.93;;;;;;;8.94;100.00;101616.56;5093128;28;20036;-74
2023/05/06 05:05:53;;;;;;;19.83;14.00;;;;;;;9.00;100.00;101606.16;5096007;28;20024;-74
2023/05/06 05:08:18;;;;;;;20.55;14.18;;;;;;;9.05;100.00;101606.97;5094069;28;20524;-74
2023/05/06 05:10:44;;;;;;;21.70;15.48;;;;;;;9.06;100.00;101592.25;5085721;28;20031;-74
2023/05/06 05:13:09;;;;;;;21.95;14.95;;;;;;;9.26;100.00;101612.97;5087244;28;20028;-74
2023/05/06 05:15:36;;;;;;;20.73;15.25;;;;;;;9.33;100.00;101620.72;5100594;28;20040;-74
2023/05/06 05:18:02;;;;;;;23.00;15.32;;;;;;;9.40;100.00;101624.13;5093137;28;20064;-74
2023/05/06 05:20:27;;;;;;;24.20;15.00;;;;;;;9.45;100.00;101622.38;5093445;28;20062;-74
2023/05/06 05:22:52;;;;;;;23.95;15.05;;;;;;;9.45;100.00;101619.78;5094331;28;20475;-74
2023/05/06 05:25:17;;;;;;;23.45;14.75;;;;;;;9.54;100.00;101624.91;5097856;28;20028;-74
2023/05/06 05:27:43;;;;;;;23.30;14.82;;;;;;;9.59;100.00;101633.56;5093077;28;20070;-75
2023/05/06 05:30:08;;;;;;;22.45;14.13;;;;;;;9.65;100.00;101629.19;5093473;28;20027;-74
2023/05/06 05:32:34;;;;;;;20.00;14.52;;;;;;;9.68;100.00;101630.03;5094584;28;20027;-74
2023/05/06 05:34:59;;;;;;;22.45;13.77;;;;;;;9.71;100.00;101632.63;5093112;28;20426;-74
2023/05/06 05:37:24;;;;;;;21.67;13.60;;;;;;;9.76;100.00;101638.66;5090762;28;20035;-74
2023/05/06 05:39:50;;;;;;;22.88;14.13;;;;;;;9.81;100.00;101636.03;5092787;28;20046;-74
2023/05/06 05:42:15;;;;;;;23.83;14.60;;;;;;;9.91;100.00;101647.19;5095845;28;20382;-74
2023/05/06 05:44:40;;;;;;;20.65;13.77;;;;;;;10.01;100.00;101641.94;5092296;28;20024;-75
2023/05/06 05:47:06;;;;;;;21.52;13.85;;;;;;;10.06;100.00;101628.84;5092992;28;20039;-74
2023/05/06 05:49:31;;;;;;;19.05;13.48;;;;;;;10.16;100.00;101632.25;5094022;28;20028;-74
2023/05/06 05:51:56;;;;;;;20.98;13.95;;;;;;;10.25;100.00;101632.16;5091729;28;20146;-74
2023/05/06 05:54:22;;;;;;;20.70;14.57;;;;;;;10.39;100.00;101635.50;5090865;28;20107;-74
2023/05/06 05:56:47;;;;;;;17.92;12.60;;;;;;;10.50;100.00;101627.63;5101229;28;20031;-74
2023/05/06 05:59:12;;;;;;;19.73;13.18;;;;;;;10.59;100.00;101637.91;5093138;28;20031;-74
2023/05/06 06:01:37;;;;;;;19.73;12.02;;;;;;;10.67;100.00;101632.63;5091380;28;20028;-74
2023/05/06 06:04:03;;;;;;;18.73;12.68;;;;;;;10.71;100.00;101627.34;5092085;28;20026;-74
2023/05/06 06:06:28;;;;;;;16.67;11.85;;;;;;;10.78;100.00;101628.16;5092988;28;20069;-74
2023/05/06 06:08:54;;;;;;;17.23;11.57;;;;;;;10.79;100.00;101627.28;5092161;28;20459;-74
2023/05/06 06:11:20;;;;;;;17.80;11.60;;;;;;;10.93;100.00;101627.13;5103622;28;20124;-74
2023/05/06 06:13:45;;;;;;;17.40;11.63;;;;;;;10.97;100.00;101629.66;5092993;28;20472;-74
2023/05/06 06:16:11;;;;;;;17.98;10.52;;;;;;;11.05;100.00;101626.06;5092167;28;20044;-74
2023/05/06 06:18:36;;;;;;;16.75;11.10;;;;;;;11.08;100.00;101629.50;5091760;28;20036;-74
2023/05/06 06:21:04;;;;;;;17.20;10.82;;;;;;;11.09;100.00;101623.44;5091803;28;20051;-74
2023/05/06 06:23:29;;;;;;;13.95;10.15;;;;;;;11.14;100.00;101633.78;5101779;28;20023;-74
2023/05/06 06:25:54;;;;;;;16.38;10.63;;;;;;;11.12;100.00;101630.34;5092616;28;20489;-74
2023/05/06 06:28:20;;;;;;;16.02;10.02;;;;;;;11.08;100.00;101633.88;5091379;28;20039;-74
2023/05/06 06:30:45;;;;;;;17.60;10.40;;;;;;;11.14;100.00;101636.41;5092054;28;20526;-74
2023/05/06 06:33:11;;;;;;;15.82;11.48;;;;;;;11.15;100.00;101625.97;5091131;28;20027;-74
2023/05/06 06:35:36;;;;;;;18.05;10.57;;;;;;;11.21;100.00;101643.25;5091713;28;20020;-74
2023/05/06 06:38:01;;;;;;;18.52;11.52;;;;;;;11.25;100.00;101634.53;5091335;28;20028;-74
2023/05/06 06:40:27;;;;;;;15.80;10.48;;;;;;;11.29;100.00;101635.34;5092667;28;20077;-74
2023/05/06 06:42:52;;;;;;;16.85;10.02;;;;;;;11.37;100.00;101639.56;5096661;28;20386;-74
2023/05/06 06:45:17;;;;;;;16.27;10.30;;;;;;;11.52;100.00;101642.84;5100241;28;20024;-75
2023/05/06 06:47:43;;;;;;;14.63;9.32;;;;;;;11.60;100.00;101638.38;5075733;28;20048;-74
2023/05/06 06:50:08;;;;;;;16.73;10.25;;;;;;;11.73;100.00;101648.59;5091842;28;20051;-74
2023/05/06 06:52:34;;;;;;;13.45;10.10;;;;;;;11.86;100.00;101644.06;5092538;28;20032;-75
2023/05/06 06:55:00;;;;;;;14.75;9.95;;;;;;;11.99;100.00;101639.50;5104603;28;20024;-74
2023/05/06 06:57:26;;;;;;;13.52;10.73;;;;;;;12.15;100.00;101637.50;5091002;28;20110;-74
2023/05/06 06:59:52;;;;;;;16.10;10.25;;;;;;;12.21;100.00;101640.03;5089834;28;20103;-77
2023/05/06 07:02:21;;;;;;;15.82;10.25;;;;;;;12.38;100.00;101644.94;5093632;28;20066;-73
2023/05/06 07:04:46;;;;;;;16.52;9.48;;;;;;;12.48;100.00;101648.25;5097788;28;20020;-75
2023/05/06 07:07:12;;;;;;;15.15;9.65;;;;;;;12.56;100.00;101643.75;5095309;28;20035;-74
2023/05/06 07:09:38;;;;;;;16.30;9.18;;;;;;;12.65;100.00;101640.94;5096119;28;20087;-73
2023/05/06 07:12:05;;;;;;;16.00;8.85;;;;;;;12.74;100.00;101639.91;5085875;28;20032;-72
2023/05/06 07:14:31;;;;;;;15.05;9.07;;;;;;;12.82;100.00;101648.50;5089743;28;20059;-73
2023/05/06 07:16:56;;;;;;;17.80;10.02;;;;;;;12.93;100.00;101653.50;5089336;28;20028;-73
2023/05/06 07:19:24;;;;;;;15.90;9.60;;;;;;;13.06;100.00;101647.13;5098484;28;20032;-76
2023/05/06 07:21:49;;;;;;;15.57;9.75;;;;;;;13.15;100.00;101659.16;5093492;28;20035;-74
2023/05/06 07:24:14;;;;;;;17.42;10.45;;;;;;;13.26;100.00;101639.72;5095976;28;20016;-75
2023/05/06 07:26:40;;;;;;;14.02;9.43;;;;;;;13.39;100.00;101656.03;5096355;28;20039;-74
2023/05/06 07:29:05;;;;;;;19.90;10.50;;;;;;;13.48;100.00;101653.22;5095824;28;20032;-74
2023/05/06 07:31:33;;;;;;;14.93;8.88;;;;;;;13.45;100.00;101649.81;5094508;28;20016;-74
2023/05/06 07:33:59;;;;;;;17.90;10.00;;;;;;;13.50;100.00;101653.16;5104434;28;20039;-73
2023/05/06 07:36:25;;;;;;;26.88;13.82;;;;;;;13.51;100.00;101655.75;5097994;28;20024;-74
2023/05/06 07:38:51;;;;;;;21.55;12.43;;;;;;;13.56;100.00;101653.03;5113282;28;20360;-74
2023/05/06 07:41:17;;;;;;;22.20;12.10;;;;;;;13.56;100.00;101658.25;5116040;28;20035;-77
2023/05/06 07:43:42;;;;;;;22.63;11.73;;;;;;;13.62;100.00;101657.28;5095607;28;20031;-74
2023/05/06 07:46:07;;;;;;;25.40;12.82;;;;;;;13.70;100.00;101661.44;5096383;28;20420;-74
2023/05/06 07:48:33;;;;;;;19.25;11.75;;;;;;;13.79;100.00;101658.59;5113325;28;20032;-76
2023/05/06 07:50:58;;;;;;;19.70;10.80;;;;;;;13.88;100.00;101661.91;5113638;28;20032;-75
2023/05/06 07:53:24;;;;;;;25.83;12.48;;;;;;;14.01;100.00;101652.84;5111061;28;20024;-74
2023/05/06 07:55:51;;;;;;;21.58;13.23;;;;;;;14.11;100.00;101654.31;5115698;28;20024;-75
2023/05/06 07:58:17;;;;;;;24.33;13.23;;;;;;;14.22;100.00;101657.56;5110281;28;20035;-75
2023/05/06 08:00:42;;;;;;;24.25;14.25;;;;;;;14.34;100.00;101663.38;5115116;28;20028;-74
2023/05/06 08:03:08;;;;;;;30.45;16.92;;;;;;;14.43;100.00;101669.22;5105433;28;20027;-74
2023/05/06 08:05:33;;;;;;;28.50;15.30;;;;;;;14.54;100.00;101660.25;5105960;28;20023;-73
2023/05/06 08:07:59;;;;;;;27.98;17.13;;;;;;;14.57;100.00;101647.91;5112133;28;20383;-74
2023/05/06 08:10:24;;;;;;;27.75;16.80;;;;;;;14.69;100.00;101660.69;5094302;28;20025;-74
2023/05/06 08:12:50;;;;;;;30.55;17.65;;;;;;;14.77;100.00;101660.47;5099410;28;20102;-73
2023/05/06 08:15:15;;;;;;;33.03;18.35;;;;;;;14.77;100.00;101672.75;5095748;28;20511;-73
2023/05/06 08:17:40;;;;;;;28.75;18.08;;;;;;;14.80;100.00;101660.38;5094390;28;20035;-73
2023/05/06 08:20:06;;;;;;;25.98;14.82;;;;;;;14.92;100.00;101669.69;5095062;28;20053;-73
2023/05/06 08:22:32;;;;;;;22.63;12.60;;;;;;;14.84;100.00;101658.53;5093503;28;20459;-74
2023/05/06 08:24:57;;;;;;;24.85;14.73;;;;;;;14.91;100.00;101653.09;5094095;28;20032;-73
2023/05/06 08:27:23;;;;;;;21.40;12.88;;;;;;;15.02;100.00;101663.28;5094765;28;20161;-73
2023/05/06 08:29:48;;;;;;;19.63;11.38;;;;;;;15.14;100.00;101659.41;5093911;28;20463;-73
2023/05/06 08:32:13;;;;;;;20.38;11.35;;;;;;;15.29;100.00;101650.22;5094299;28;20157;-73
2023/05/06 08:34:39;;;;;;;17.23;10.07;;;;;;;15.46;100.00;101655.81;5093997;28;20039;-73
2023/05/06 08:37:04;;;;;;;16.17;9.95;;;;;;;15.64;100.00;101657.03;5094317;28;20020;-73
2023/05/06 08:39:30;;;;;;;19.05;10.32;;;;;;;15.65;100.00;101656.09;5092051;28;20115;-73
2023/05/06 08:41:58;;;;;;;14.02;8.45;;;;;;;15.61;100.00;101657.97;5100972;28;20028;-73
2023/05/06 08:44:26;;;;;;;14.15;8.35;;;;;;;15.63;100.00;101653.53;5093813;28;20024;-73
2023/05/06 08:46:52;;;;;;;15.52;8.18;;;;;;;15.83;100.00;101649.44;5094139;28;20028;-74
2023/05/06 08:49:17;;;;;;;14.07;7.43;;;;;;;15.96;100.00;101650.78;5092426;28;20035;-75
2023/05/06 08:51:43;;;;;;;13.52;7.55;;;;;;;16.00;100.00;101654.16;5105365;28;20073;-75
2023/05/06 08:54:10;;;;;;;11.02;7.35;;;;;;;16.05;100.00;101647.81;5094275;28;20375;-75
2023/05/06 08:56:39;;;;;;;12.80;7.00;;;;;;;16.08;100.00;101646.84;5091240;28;20050;-74
2023/05/06 08:59:07;;;;;;;11.18;6.82;;;;;;;16.15;100.00;101643.09;5093829;28;20096;-81
2023/05/06 09:01:34;;;;;;;12.43;7.20;;;;;;;16.28;100.00;101648.81;5092969;28;20035;-80
2023/05/06 09:04:00;;;;;;;10.88;6.15;;;;;;;16.40;100.00;101635.22;5093497;28;20020;-76
2023/05/06 09:06:26;;;;;;;8.15;5.40;;;;;;;16.47;100.00;101644.63;5093522;28;20023;-78
2023/05/06 09:08:51;;;;;;;7.57;4.80;;;;;;;16.57;100.00;101634.63;5106778;28;20019;-76
2023/05/06 09:11:24;;;;;;;9.07;5.30;;;;;;;16.59;100.00;101628.41;5086271;28;20028;-77
2023/05/06 09:13:50;;;;;;;12.52;6.55;;;;;;;16.66;100.00;101629.03;5092500;28;20028;-79
2023/05/06 09:16:31;;;;;;;15.52;7.25;;;;;;;16.81;100.00;101638.19;5091897;28;20249;-80
2023/05/06 09:18:58;;;;;;;11.00;6.53;;;;;;;16.95;100.00;101641.16;5091925;28;20031;-78
2023/05/06 09:21:41;;;;;;;7.88;5.00;;;;;;;17.14;100.00;101635.22;5097014;28;20020;-77
2023/05/06 09:24:08;;;;;;;9.50;5.00;;;;;;;17.25;100.00;101633.00;5107440;28;20070;-78
2023/05/06 09:26:35;;;;;;;8.20;4.85;;;;;;;17.29;100.00;101638.09;5099978;28;20040;-78
2023/05/06 09:29:05;;;;;;;7.38;4.05;;;;;;;17.34;100.00;101634.44;5107756;28;20063;-78
2023/05/06 09:31:31;;;;;;;8.70;3.78;;;;;;;17.37;97.60;101618.50;5092420;28;20052;-78
2023/05/06 09:33:59;;;;;;;6.97;3.90;;;;;;;17.58;99.08;101641.34;5098427;28;20031;-77
2023/05/06 09:36:26;;;;;;;6.35;4.25;;;;;;;17.72;94.46;101638.16;5091693;28;20107;-77
2023/05/06 09:38:55;;;;;;;6.82;3.85;;;;;;;17.81;92.88;101621.16;5091704;28;20081;-77
2023/05/06 09:41:24;;;;;;;7.43;4.15;;;;;;;17.98;100.00;101630.09;5093091;28;20032;-77
2023/05/06 09:43:50;;;;;;;4.32;3.60;;;;;;;18.13;95.43;101633.84;5105742;28;20024;-73
2023/05/06 09:46:16;;;;;;;8.68;4.05;;;;;;;18.26;94.70;101621.00;5082085;28;20489;-73
2023/05/06 09:48:42;;;;;;;4.75;3.15;;;;;;;18.31;95.62;101616.38;5090541;28;20098;-73
2023/05/06 09:51:07;;;;;;;9.50;2.42;;;;;;;18.47;86.55;101617.44;5093230;28;20337;-74
2023/05/06 09:53:36;;;;;;;3.53;1.80;;;;;;;18.62;82.47;101623.78;5090328;28;20584;-74
2023/05/06 09:56:05;;;;;;;3.97;2.00;;;;;;;18.70;84.42;101623.44;5091187;28;20475;-74
2023/05/06 09:58:31;;;;;;;3.13;2.10;;;;;;;18.77;81.91;101624.03;5084294;28;20029;-74
2023/05/06 10:00:57;;;;;;;4.15;1.80;;;;;;;18.85;81.90;101619.28;5086250;28;20490;-74
2023/05/06 10:03:23;;;;;;;2.85;1.60;;;;;;;18.85;77.34;101608.72;5093256;28;20028;-74
2023/05/06 10:05:49;;;;;;;3.75;1.80;;;;;;;18.91;80.57;101611.94;5091621;28;20031;-74
2023/05/06 10:08:17;;;;;;;2.78;1.60;;;;;;;19.02;70.46;101616.72;5092318;28;20020;-74
2023/05/06 10:10:45;;;;;;;2.15;1.65;;;;;;;19.20;72.92;101616.81;5086838;28;20028;-74
2023/05/06 10:13:12;;;;;;;5.70;2.08;;;;;;;19.41;75.52;101611.31;5096051;28;20024;-73
2023/05/06 10:15:38;;;;;;;5.25;1.77;;;;;;;19.73;65.94;101608.94;5105140;28;20065;-73
2023/05/06 10:18:07;;;;;;;3.72;1.70;;;;;;;20.07;69.63;101615.16;5106315;28;20027;-73
2023/05/06 10:20:37;;;;;;;3.88;1.63;;;;;;;20.10;74.68;101604.44;5112802;28;20019;-73
2023/05/06 10:23:12;;;;;;;3.92;1.60;;;;;;;20.18;69.55;101599.59;5094085;28;20024;-73
2023/05/06 10:25:39;;;;;;;5.50;2.28;;;;;;;20.15;70.68;101593.63;5093771;28;20028;-73
2023/05/06 10:28:07;;;;;;;8.05;2.45;;;;;;;20.27;74.16;101596.50;5097881;28;20027;-73
2023/05/06 10:30:33;;;;;;;4.07;2.25;;;;;;;20.40;67.12;101596.69;5095184;27;20028;-73
2023/05/06 10:33:05;;;;;;;3.80;2.00;;;;;;;20.72;64.45;101595.00;5091119;28;20032;-73
2023/05/06 10:36:18;;;;;;;6.85;2.20;;;;;;;21.12;76.93;101590.16;5109016;28;20479;-73
2023/05/06 10:38:46;;;;;;;4.38;2.10;;;;;;;21.22;67.24;101596.66;5090458;28;20046;-73
2023/05/06 10:41:12;;;;;;;3.70;1.77;;;;;;;21.25;58.18;101598.28;5112780;28;20356;-73
2023/05/06 10:43:42;;;;;;;4.03;1.80;;;;;;;21.37;62.34;101592.31;5097805;28;20047;-74
2023/05/06 10:46:08;;;;;;;3.92;1.60;;;;;;;21.46;56.64;101585.63;5105363;28;20441;-72
2023/05/06 10:48:56;;;;;;;5.35;2.13;;;;;;;21.54;64.55;101580.72;5096346;28;20028;-73
2023/05/06 10:51:23;;;;;;;4.18;1.90;;;;;;;21.71;62.30;101582.41;5100230;28;20036;-73
2023/05/06 10:53:59;;;;;;;7.95;2.25;;;;;;;21.76;62.76;101577.69;5111246;28;20038;-73
2023/05/06 10:56:25;;;;;;;4.30;1.92;;;;;;;21.88;64.04;101576.13;5103793;28;20028;-73
2023/05/06 10:58:52;;;;;;;3.38;1.80;;;;;;;21.82;56.39;101584.44;5106937;28;20031;-73
2023/05/06 11:01:24;;;;;;;4.05;1.85;;;;;;;21.74;55.57;101583.09;5112117;28;20436;-73
2023/05/06 11:03:50;;;;;;;2.60;2.03;;;;;;;21.69;58.37;101569.22;5111862;28;20035;-73
2023/05/06 11:06:46;;;;;;;3.90;2.08;;;;;;;21.83;63.04;101570.22;5102839;28;20027;-73